createdAt,value
2023-04-16T00:02:42.021Z,6.40
2023-04-16T00:05:45.006Z,6.53
2023-04-16T00:08:47.675Z,5.93
2023-04-16T00:11:51.883Z,5.93
2023-04-16T00:14:54.641Z,5.77
2023-04-16T00:17:57.721Z,5.33
2023-04-16T00:21:00.818Z,5.20
2023-04-16T00:24:03.482Z,5.77
2023-04-16T00:27:07.585Z,5.87
2023-04-16T00:30:11.159Z,5.07
2023-04-16T00:33:13.891Z,5.40
2023-04-16T00:36:16.615Z,5.23
2023-04-16T00:39:19.430Z,5.83
2023-04-16T00:42:23.732Z,5.77
2023-04-16T00:45:26.856Z,5.93
2023-04-16T00:48:31.750Z,5.27
2023-04-16T00:51:36.531Z,6.00
2023-04-16T00:54:40.116Z,6.07
2023-04-16T00:57:44.308Z,5.30
2023-04-16T01:00:47.007Z,5.33
2023-04-16T01:03:51.020Z,5.10
2023-04-16T01:06:53.926Z,5.70
2023-04-16T01:09:56.760Z,4.93
2023-04-16T01:13:00.857Z,5.20
2023-04-16T01:16:03.639Z,5.17
2023-04-16T01:19:06.500Z,4.90
2023-04-16T01:22:10.810Z,4.63
2023-04-16T01:25:15.833Z,4.90
2023-04-16T01:28:18.732Z,4.80
2023-04-16T01:31:21.381Z,5.90
2023-04-16T01:34:24.080Z,4.90
2023-04-16T01:37:28.213Z,5.37
2023-04-16T01:40:31.167Z,4.40
2023-04-16T01:43:33.832Z,5.03
2023-04-16T01:46:36.787Z,4.60
2023-04-16T01:49:39.545Z,4.67
2023-04-16T01:52:43.569Z,4.13
2023-04-16T01:55:46.324Z,4.80
2023-04-16T01:58:49.011Z,4.03
2023-04-16T02:01:51.762Z,4.73
2023-04-16T02:04:54.551Z,4.33
2023-04-16T02:07:58.489Z,3.83
2023-04-16T02:11:01.872Z,4.70
2023-04-16T02:14:04.592Z,4.30
2023-04-16T02:17:07.222Z,4.53
2023-04-16T02:20:11.167Z,4.70
2023-04-16T02:23:15.814Z,5.17
2023-04-16T02:26:18.486Z,4.60
2023-04-16T02:29:22.528Z,4.30
2023-04-16T02:32:25.296Z,5.07
2023-04-16T02:35:28.212Z,5.00
2023-04-16T02:38:32.179Z,5.63
2023-04-16T02:41:34.939Z,5.47
2023-04-16T02:44:38.037Z,5.30
2023-04-16T02:47:40.735Z,5.37
2023-04-16T02:50:46.171Z,5.40
2023-04-16T02:53:50.511Z,5.20
2023-04-16T02:56:53.171Z,6.80
2023-04-16T02:59:55.919Z,5.17
2023-04-16T03:02:58.660Z,5.20
2023-04-16T03:06:01.461Z,5.30
2023-04-16T03:09:05.484Z,6.23
2023-04-16T03:12:08.148Z,6.20
2023-04-16T03:15:11.716Z,5.17
2023-04-16T03:18:14.384Z,6.23
2023-04-16T03:21:17.035Z,5.70
2023-04-16T03:24:21.220Z,5.77
2023-04-16T03:27:23.844Z,6.43
2023-04-16T03:30:26.617Z,6.03
2023-04-16T03:33:29.251Z,7.10
2023-04-16T03:36:32.524Z,6.87
2023-04-16T03:39:36.558Z,6.67
2023-04-16T03:42:40.448Z,6.40
2023-04-16T03:45:45.450Z,6.20
2023-04-16T03:48:48.087Z,7.23
2023-04-16T03:51:51.143Z,6.17
2023-04-16T03:54:55.243Z,6.93
2023-04-16T03:57:57.853Z,6.80
2023-04-16T04:01:00.473Z,6.00
2023-04-16T04:04:03.503Z,6.10
2023-04-16T04:07:06.667Z,7.17
2023-04-16T04:10:12.650Z,5.93
2023-04-16T04:13:15.277Z,6.53
2023-04-16T04:16:18.397Z,5.87
2023-04-16T04:19:21.089Z,5.93
2023-04-16T04:22:23.771Z,6.50
2023-04-16T04:25:28.376Z,5.57
2023-04-16T04:28:31.445Z,6.17
2023-04-16T04:31:34.125Z,6.17
2023-04-16T04:34:36.909Z,5.73
2023-04-16T04:37:39.606Z,6.63
2023-04-16T04:40:43.802Z,6.37
2023-04-16T04:43:46.510Z,6.47
2023-04-16T04:46:49.235Z,6.03
2023-04-16T04:49:51.995Z,6.20
2023-04-16T04:52:54.712Z,5.63
2023-04-16T04:56:09.161Z,6.47
2023-04-16T04:59:15.418Z,6.30
2023-04-16T05:02:18.732Z,6.30
2023-04-16T05:05:21.709Z,6.07
2023-04-16T05:08:24.432Z,6.33
2023-04-16T05:11:28.529Z,6.37
2023-04-16T05:14:31.193Z,6.00
2023-04-16T05:17:34.029Z,6.60
2023-04-16T05:20:37.786Z,7.10
2023-04-16T05:23:40.489Z,8.23
2023-04-16T05:26:44.572Z,8.50
2023-04-16T05:29:47.235Z,8.47
2023-04-16T05:32:49.936Z,8.80
2023-04-16T05:35:52.643Z,9.77
2023-04-16T05:38:55.372Z,9.50
2023-04-16T05:41:59.450Z,9.13
2023-04-16T05:45:03.474Z,9.37
2023-04-16T05:48:06.518Z,9.43
2023-04-16T05:51:09.268Z,10.70
2023-04-16T05:54:12.009Z,9.60
2023-04-16T05:57:17.230Z,10.60
2023-04-16T06:00:20.062Z,10.47
2023-04-16T06:03:22.863Z,9.50
2023-04-16T06:06:27.321Z,9.80
2023-04-16T06:09:30.778Z,10.13
2023-04-16T06:12:35.291Z,9.80
2023-04-16T06:15:38.104Z,10.30
2023-04-16T06:18:41.083Z,9.50
2023-04-16T06:21:44.379Z,10.13
2023-04-16T06:24:47.260Z,9.43
2023-04-16T06:27:51.393Z,11.60
2023-04-16T06:30:54.128Z,9.77
2023-04-16T06:33:57.006Z,10.47
2023-04-16T06:36:59.768Z,10.93
2023-04-16T06:40:02.447Z,10.23
2023-04-16T06:43:08.348Z,10.40
2023-04-16T06:46:11.144Z,10.83
2023-04-16T06:49:13.839Z,10.30
2023-04-16T06:52:16.561Z,10.00
2023-04-16T06:55:19.328Z,10.47
2023-04-16T06:58:23.506Z,9.53
2023-04-16T07:01:26.813Z,10.97
2023-04-16T07:04:29.684Z,10.43
2023-04-16T07:07:32.429Z,10.57
2023-04-16T07:10:35.356Z,9.13
2023-04-16T07:13:39.419Z,10.27
2023-04-16T07:16:42.232Z,9.17
2023-04-16T07:19:45.446Z,9.57
2023-04-16T07:22:48.191Z,9.57
2023-04-16T07:25:50.940Z,9.37
2023-04-16T07:28:54.950Z,9.77
2023-04-16T07:31:58.337Z,9.57
2023-04-16T07:35:01.060Z,9.20
2023-04-16T07:38:03.802Z,9.23
2023-04-16T07:41:06.720Z,9.83
2023-04-16T07:44:11.012Z,9.30
2023-04-16T07:47:13.767Z,8.80
2023-04-16T07:50:16.712Z,8.70
2023-04-16T07:53:19.420Z,8.90
2023-04-16T07:56:22.327Z,9.03
2023-04-16T07:59:26.683Z,7.70
2023-04-16T08:02:30.073Z,8.43
2023-04-16T08:05:32.911Z,8.63
2023-04-16T08:08:35.641Z,8.83
2023-04-16T08:11:38.413Z,8.00
2023-04-16T08:14:42.553Z,7.97
2023-04-16T08:17:45.737Z,7.97
2023-04-16T08:20:48.501Z,8.00
2023-04-16T08:23:51.334Z,7.10
2023-04-16T08:26:54.068Z,8.00
2023-04-16T08:29:58.151Z,7.97
2023-04-16T08:33:01.206Z,8.37
2023-04-16T08:36:03.962Z,8.17
2023-04-16T08:39:06.692Z,7.77
2023-04-16T08:42:19.834Z,8.90
2023-04-16T08:45:26.890Z,8.43
2023-04-16T08:48:33.495Z,7.93
2023-04-16T08:51:36.707Z,7.50
2023-04-16T08:54:47.429Z,8.33
2023-04-16T08:58:00.747Z,8.00
2023-04-16T09:01:06.238Z,7.80
2023-04-16T09:04:10.111Z,7.50
2023-04-16T09:07:13.460Z,7.57
2023-04-16T09:10:16.631Z,8.17
2023-04-16T09:13:20.544Z,8.43
2023-04-16T09:16:26.454Z,7.50
2023-04-16T09:19:29.317Z,6.93
2023-04-16T09:22:32.049Z,7.37
2023-04-16T09:25:35.699Z,7.47
2023-04-16T09:28:43.485Z,7.87
2023-04-16T09:32:03.398Z,8.43
2023-04-16T09:35:06.582Z,7.50
2023-04-16T09:38:09.350Z,8.07
2023-04-16T09:41:12.411Z,8.13
2023-04-16T09:44:15.338Z,7.63
2023-04-16T09:47:19.379Z,8.07
2023-04-16T09:50:22.086Z,7.57
2023-04-16T09:53:26.040Z,8.57
2023-04-16T09:56:30.421Z,8.57
2023-04-16T09:59:34.338Z,7.43
2023-04-16T10:02:41.984Z,8.90
2023-04-16T10:05:45.151Z,7.67
2023-04-16T10:08:50.281Z,8.40
2023-04-16T10:11:53.449Z,8.70
2023-04-16T10:14:56.298Z,8.30
2023-04-16T10:18:01.072Z,8.10
2023-04-16T10:21:04.016Z,8.20
2023-04-16T10:24:08.175Z,7.93
2023-04-16T10:27:12.294Z,7.77
2023-04-16T10:30:17.939Z,7.27
2023-04-16T10:33:24.348Z,8.60
2023-04-16T10:36:27.619Z,8.00
2023-04-16T10:39:30.350Z,7.50
2023-04-16T10:42:33.603Z,8.23
2023-04-16T10:45:39.210Z,7.37
2023-04-16T10:48:49.758Z,7.93
2023-04-16T10:51:55.245Z,6.43
2023-04-16T10:55:00.368Z,6.87
2023-04-16T10:58:03.016Z,6.83
2023-04-16T11:01:11.926Z,7.03
2023-04-16T11:04:38.516Z,6.70
2023-04-16T11:07:49.883Z,6.33
2023-04-16T11:10:53.013Z,6.07
2023-04-16T11:13:57.722Z,5.93
2023-04-16T11:17:04.792Z,6.20
2023-04-16T11:20:18.855Z,5.83
2023-04-16T11:23:23.026Z,5.33
2023-04-16T11:26:27.079Z,5.83
2023-04-16T11:29:29.888Z,5.83
2023-04-16T11:32:33.735Z,5.33
2023-04-16T11:35:39.375Z,5.77
2023-04-16T11:38:42.969Z,5.23
2023-04-16T11:41:47.483Z,4.93
2023-04-16T11:44:54.107Z,4.27
2023-04-16T11:47:57.967Z,4.57
2023-04-16T11:51:02.302Z,4.60
2023-04-16T11:54:05.575Z,4.20
2023-04-16T11:57:08.291Z,3.70
2023-04-16T12:00:14.180Z,3.27
2023-04-16T12:03:17.622Z,3.67
2023-04-16T12:06:24.249Z,4.27
2023-04-16T12:09:27.514Z,3.23
2023-04-16T12:12:32.282Z,3.40
2023-04-16T12:15:45.246Z,3.40
2023-04-16T12:19:01.447Z,3.00
2023-04-16T12:22:05.505Z,3.37
2023-04-16T12:25:11.634Z,3.53
2023-04-16T12:28:16.463Z,3.13
2023-04-16T12:31:20.427Z,2.70
2023-04-16T12:34:28.873Z,3.80
2023-04-16T12:37:47.887Z,3.23
2023-04-16T12:40:50.722Z,3.10
2023-04-16T12:43:53.941Z,3.30
2023-04-16T12:46:56.592Z,3.20
2023-04-16T12:49:59.540Z,3.73
2023-04-16T12:53:03.672Z,3.33
2023-04-16T12:56:06.952Z,3.77
2023-04-16T12:59:10.488Z,3.90
2023-04-16T13:02:13.616Z,3.63
2023-04-16T13:05:19.069Z,3.60
2023-04-16T13:08:23.257Z,4.10
2023-04-16T13:11:26.078Z,3.97
2023-04-16T13:14:28.799Z,3.70
2023-04-16T13:17:31.828Z,3.47
2023-04-16T13:20:34.689Z,4.60
2023-04-16T13:23:38.839Z,3.90
2023-04-16T13:26:42.476Z,4.57
2023-04-16T13:29:45.220Z,4.87
2023-04-16T13:32:47.957Z,4.60
2023-04-16T13:35:51.352Z,4.87
2023-04-16T13:38:55.436Z,4.47
2023-04-16T13:41:58.208Z,4.30
2023-04-16T13:45:01.280Z,4.27
2023-04-16T13:48:04.258Z,4.87
2023-04-16T13:51:08.358Z,5.00
2023-04-16T13:54:12.743Z,4.33
2023-04-16T13:57:15.532Z,4.53
2023-04-16T14:00:19.653Z,4.83
2023-04-16T14:03:22.587Z,4.43
2023-04-16T14:06:25.922Z,5.27
2023-04-16T14:09:30.819Z,4.83
2023-04-16T14:12:33.609Z,5.77
2023-04-16T14:15:36.523Z,5.23
2023-04-16T14:18:42.153Z,5.00
2023-04-16T14:21:44.833Z,5.93
2023-04-16T14:24:49.120Z,5.97
2023-04-16T14:27:52.258Z,5.30
2023-04-16T14:30:54.925Z,5.70
2023-04-16T14:33:57.619Z,6.33
2023-04-16T14:37:00.321Z,5.30
2023-04-16T14:40:08.903Z,6.47
2023-04-16T14:43:11.706Z,6.33
2023-04-16T14:46:17.680Z,6.40
2023-04-16T14:49:20.705Z,6.63
2023-04-16T14:52:23.531Z,6.37
2023-04-16T14:55:27.631Z,7.40
2023-04-16T14:58:30.440Z,7.43
2023-04-16T15:01:34.657Z,7.27
2023-04-16T15:04:37.619Z,7.83
2023-04-16T15:07:40.508Z,7.87
2023-04-16T15:10:45.780Z,8.63
2023-04-16T15:13:48.484Z,8.27
2023-04-16T15:16:51.699Z,7.37
2023-04-16T15:19:54.634Z,8.20
2023-04-16T15:22:57.382Z,8.77
2023-04-16T15:26:01.584Z,8.57
2023-04-16T15:29:04.420Z,9.73
2023-04-16T15:32:07.940Z,8.93
2023-04-16T15:35:11.450Z,9.73
2023-04-16T15:38:14.354Z,9.57
2023-04-16T15:41:18.560Z,9.30
2023-04-16T15:44:21.347Z,8.97
2023-04-16T15:47:24.152Z,8.43
2023-04-16T15:50:27.343Z,8.60
2023-04-16T15:53:29.998Z,9.07
2023-04-16T15:56:34.205Z,9.80
2023-04-16T15:59:36.913Z,9.57
2023-04-16T16:02:39.882Z,10.20
2023-04-16T16:05:42.688Z,9.83
2023-04-16T16:08:45.404Z,9.77
2023-04-16T16:11:49.490Z,8.90
2023-04-16T16:14:52.187Z,9.83
2023-04-16T16:17:55.584Z,10.97
2023-04-16T16:20:58.460Z,9.97
2023-04-16T16:24:01.223Z,10.77
2023-04-16T16:27:05.368Z,10.23
2023-04-16T16:30:09.649Z,10.30
2023-04-16T16:33:12.766Z,10.07
2023-04-16T16:36:15.563Z,10.70
2023-04-16T16:39:18.248Z,10.43
2023-04-16T16:42:22.357Z,10.47
2023-04-16T16:45:26.097Z,10.43
2023-04-16T16:48:28.776Z,10.60
2023-04-16T16:51:33.569Z,10.53
2023-04-16T16:54:36.288Z,9.40
2023-04-16T16:57:40.515Z,11.47
2023-04-16T17:00:43.270Z,10.67
2023-04-16T17:03:46.160Z,10.70
2023-04-16T17:06:49.032Z,10.13
2023-04-16T17:09:51.716Z,11.63
2023-04-16T17:12:55.972Z,10.90
2023-04-16T17:15:58.643Z,11.63
2023-04-16T17:19:01.361Z,11.03
2023-04-16T17:22:05.078Z,9.97
2023-04-16T17:25:08.878Z,11.13
2023-04-16T17:28:12.973Z,11.00
2023-04-16T17:31:16.234Z,10.13
2023-04-16T17:34:19.548Z,10.70
2023-04-16T17:37:22.255Z,10.80
2023-04-16T17:40:24.927Z,11.20
2023-04-16T17:43:29.208Z,11.13
2023-04-16T17:46:32.008Z,11.13
2023-04-16T17:49:34.783Z,10.87
2023-04-16T17:52:38.173Z,12.10
2023-04-16T17:55:42.629Z,11.43
2023-04-16T17:58:46.743Z,12.47
2023-04-16T18:01:49.837Z,11.40
2023-04-16T18:04:52.753Z,14.97
2023-04-16T18:07:56.591Z,13.73
2023-04-16T18:10:59.327Z,12.32
2023-04-16T18:14:03.379Z,12.50
2023-04-16T18:17:06.745Z,11.33
2023-04-16T18:20:11.625Z,11.57
2023-04-16T18:23:14.404Z,12.67
2023-04-16T18:26:20.518Z,11.63
2023-04-16T18:29:25.641Z,10.60
2023-04-16T18:32:31.065Z,10.57
2023-04-16T18:35:34.186Z,11.00
2023-04-16T18:38:41.432Z,10.75
2023-04-16T18:41:52.256Z,9.45
2023-04-16T18:44:56.823Z,10.70
2023-04-16T18:47:59.610Z,11.03
2023-04-16T18:51:02.356Z,10.80
2023-04-16T18:54:05.311Z,11.40
2023-04-16T18:57:08.124Z,10.70
2023-04-16T19:00:13.550Z,11.63
2023-04-16T19:03:16.461Z,11.90
2023-04-16T19:06:19.321Z,10.73
2023-04-16T19:09:22.097Z,11.63
2023-04-16T19:12:24.982Z,12.50
2023-04-16T19:15:31.201Z,12.13
2023-04-16T19:18:36.047Z,11.77
2023-04-16T19:21:39.479Z,11.33
2023-04-16T19:24:42.241Z,11.40
2023-04-16T19:27:45.115Z,12.03
2023-04-16T19:30:50.930Z,11.43
2023-04-16T19:33:53.934Z,12.13
2023-04-16T19:36:56.712Z,11.93
2023-04-16T19:39:59.752Z,12.27
2023-04-16T19:43:02.438Z,12.47
2023-04-16T19:46:06.572Z,12.77
2023-04-16T19:49:09.714Z,12.23
2023-04-16T19:52:12.806Z,15.23
2023-04-16T19:55:16.352Z,11.77
2023-04-16T19:58:19.102Z,12.57
2023-04-16T20:01:23.369Z,14.47
2023-04-16T20:04:26.468Z,12.83
2023-04-16T20:07:29.670Z,12.80
2023-04-16T20:10:32.448Z,12.97
2023-04-16T20:13:37.683Z,11.53
2023-04-16T20:16:43.632Z,12.63
2023-04-16T20:19:49.594Z,12.87
2023-04-16T20:22:52.482Z,12.30
2023-04-16T20:25:55.223Z,14.53
2023-04-16T20:28:58.113Z,12.57
2023-04-16T20:32:02.199Z,12.57
2023-04-16T20:35:10.380Z,13.37
2023-04-16T20:38:13.335Z,12.70
2023-04-16T20:41:21.031Z,12.50
2023-04-16T20:44:26.177Z,11.57
2023-04-16T20:47:30.478Z,13.40
2023-04-16T20:50:33.383Z,11.90
2023-04-16T20:53:37.157Z,11.48
2023-04-16T20:56:39.778Z,11.27
2023-04-16T20:59:42.714Z,10.17
2023-04-16T21:02:46.979Z,10.47
2023-04-16T21:05:50.982Z,9.97
2023-04-16T21:08:53.692Z,9.60
2023-04-16T21:11:56.555Z,9.47
2023-04-16T21:14:59.398Z,9.30
2023-04-16T21:18:03.529Z,9.53
2023-04-16T21:21:06.651Z,8.87
2023-04-16T21:24:09.706Z,9.70
2023-04-16T21:27:12.814Z,9.60
2023-04-16T21:30:16.360Z,9.73
2023-04-16T21:33:20.527Z,9.10
2023-04-16T21:36:26.440Z,10.03
2023-04-16T21:39:30.908Z,10.37
2023-04-16T21:42:33.856Z,9.70
2023-04-16T21:45:36.713Z,10.13
2023-04-16T21:48:40.925Z,9.67
2023-04-16T21:51:46.031Z,10.60
2023-04-16T21:54:48.939Z,10.70
2023-04-16T21:57:51.655Z,10.97
2023-04-16T22:00:54.878Z,11.27
2023-04-16T22:03:59.113Z,10.70
2023-04-16T22:07:03.270Z,10.07
2023-04-16T22:10:08.701Z,10.60
2023-04-16T22:13:12.679Z,10.90
2023-04-16T22:16:15.692Z,10.73
2023-04-16T22:19:21.607Z,10.37
2023-04-16T22:22:24.596Z,10.67
2023-04-16T22:25:27.436Z,9.97
2023-04-16T22:28:30.172Z,10.07
2023-04-16T22:31:33.016Z,9.07
2023-04-16T22:34:37.140Z,8.80
2023-04-16T22:37:40.475Z,10.00
2023-04-16T22:40:43.254Z,9.27
2023-04-16T22:43:45.997Z,7.90
2023-04-16T22:46:48.835Z,8.53
2023-04-16T22:49:53.757Z,8.20
2023-04-16T22:52:56.676Z,8.70
2023-04-16T22:55:59.525Z,8.83
2023-04-16T22:59:02.284Z,9.20
2023-04-16T23:02:05.035Z,8.60
2023-04-16T23:05:10.470Z,9.37
2023-04-16T23:08:13.328Z,8.30
2023-04-16T23:11:16.351Z,8.80
2023-04-16T23:14:19.528Z,8.47
2023-04-16T23:17:22.183Z,9.07
2023-04-16T23:20:26.356Z,8.27
2023-04-16T23:23:29.271Z,7.70
2023-04-16T23:26:32.787Z,8.17
2023-04-16T23:29:35.512Z,8.80
2023-04-16T23:32:38.277Z,8.07
2023-04-16T23:35:42.412Z,7.70
2023-04-16T23:38:45.219Z,8.27
2023-04-16T23:41:47.954Z,8.43
2023-04-16T23:44:50.761Z,7.23
2023-04-16T23:47:53.560Z,7.03
2023-04-16T23:50:57.718Z,8.20
2023-04-16T23:54:00.549Z,8.37
2023-04-16T23:57:03.236Z,8.00
